My Meet Scores
Emily Jaworski, Gym Kinetics Gymnastics - MyMeetScores.com
Top100 | Top Teams | Upcoming Meets | Completed Meets | Latest | Add Scores | Help| Support | Bookmark and Share

Emily Jaworski, Gym Kinetics Gymnastics
Personal Bests
LevelVault BarsBeamFloorAA
XD9.1757.450 9.2009.25033.875
XG9.1509.500 9.6509.60037.900
XP9.1758.300 9.4259.52535.850
Meet Scores
Date Meet Team Session Level Division Vault Bars Beam Floor AA
2021-03-26 Illinois State Meet Level 9,10, Platinum, Dia Gym Kinetics Gymnastics 05 XD Sr 8.450 8 6.000 15 9.200 7T 9.225 11 32.875 15
2021-02-12 Harley Meet Women - Midwest Twisters Gym Kinetics Gymnastics O05 XD Sr A 7.600 13 5.725 12 7.500 14 9.250 9 30.075 12
2021-01-21 King Arthur Invitational Gym Kinetics Gymnastics 17 XD All 9.175 2 7.450 6 8.475 5 8.775 8 33.875 4
2021-01-14 2021 Bravo Classic Gym Kinetics Gymnastics 10 XD All 8.700 2 6.775 3 9.100 1 7.925 3 32.500 3
2020-02-21 Kinetic Classic Gym Kinetics Gymnastics 11 XP Older 9.175 34 7.750 46 9.400 4 9.525 8 35.850 28T
2020-01-17 2020 Bravo Classic Gym Kinetics Gymnastics 1A XP Sr 9.100 13T 7.350 18 8.450 15 8.850 17 33.750 18
2020-01-10 Leenda's Island Adventure Gym Kinetics Gymnastics GG5 XP 15 & Over 8.750 10T 7.700 11T 9.350 3T 9.100 9T 34.900 9
2019-04-05 2019 Illinois XG, XP, XD State Championships Gym Kinetics Gymnastics 2 XP Sr B 8.925 20T 7.600 21 8.300 20T 9.250 14 34.075 21
2019-03-01 NGCD Academy's 2019 Flip'r Invitational Gym Kinetics Gymnastics 1 XP Sr 9.075 3 8.275 6 9.150 4 8.825 10 35.325 5
2019-02-23 Kinetic Classic 2019 Gym Kinetics Gymnastics 1 XP Older 8.350 14 7.800 12T 8.125 13 9.250 5 33.525 14
2019-02-08 Midwest Twisters Harley Meet Womens Gym Kinetics Gymnastics T01 XP 14 yrs. 8.800 14 8.100 8 9.425 1T 9.250 2 35.575 5
2019-01-18 2019 Bravo Classic Gym Kinetics Gymnastics 3A XP Sr 8.400 15T 8.050 14T 7.200 16 8.650 16 32.300 16
2019-01-11 St Jude Benefit Meet Gym Kinetics Gymnastics 1C XP Sr B 8.550 12T 7.600 13 9.025 5T 8.600 13 33.775 10
2018-12-14 2018 Aspire Classic Gym Kinetics Gymnastics 5B XP Older 8.600 13T 7.650 14 7.450 18 8.950 11 32.650 17
2018-04-06 XCEL State Championships Gym Kinetics Gymnastics 9 XP Jr C 8.850 21T 7.800 19 9.325 4 9.175 13T 35.150 15
2018-02-23 Kinetic Classic Gym Kinetics Gymnastics 1 XP Older 8.800 66T 7.750 64T 8.550 49T 8.800 59T 33.900 64
2018-02-03 Midwest Games Gym Kinetics Gymnastics 1 XP SR 8.500 12 8.025 12 9.000 5 9.000 7T 34.525 10
2018-01-19 2018 Bravo Classic Gym Kinetics Gymnastics 11A XP Jr 8.950 9 8.300 11 9.400 1T 8.650 14 35.300 10
2017-04-21 2017 Illinois Xcel State Championships Gym Kinetics Gymnastics 2 XG Jr B 9.150 5 9.500 6T 9.650 1 9.600 1 37.900 1
2017-02-24 Kinetic Classic Gym Kinetics Gymnastics 8 XG All Ages 8.250 28T 9.250 25 7.900 37 9.500 4T 34.900 30
2017-01-13 St Jude Benefit Meet Gym Kinetics Gymnastics 9B XG Sr A 8.600 5 8.650 7T 8.725 6T 9.300 3 35.275 6
2016-04-22 2016 Illinois Level 5 And Xcel State Championships Gym Kinetics Gymnastics 1 XG Ch C 9.000 11* 9.350 8 8.775 13 9.075 11T 36.200 8T
2016-02-20 Big Classic Gym Kinetics Gymnastics 1B XG Junior A 9.050 6T 8.700 8 8.450 10 9.450 2 35.650 7
2016-01-22 King Arthur Invitational Gym Kinetics Gymnastics S10 XG Jr 8.875 11 8.700 9 9.100 9 9.525 2 36.200 9
2015-12-04 2015 Ultimate Wish Classic Andover All Stars 5 XG All 8.800 18 8.850 22 9.250 7 9.200 17 36.100 13
Get your scores on
a t-shirt, pin, or hoodie